createdAt,value
2022-09-30T00:01:06.359Z,5.07
2022-09-30T00:03:44.452Z,5.97
2022-09-30T00:06:13.000Z,4.63
2022-09-30T00:08:53.363Z,4.60
2022-09-30T00:11:25.401Z,4.68
2022-09-30T00:13:56.566Z,4.40
2022-09-30T00:16:26.775Z,4.07
2022-09-30T00:18:58.674Z,4.03
2022-09-30T00:21:27.409Z,3.97
2022-09-30T00:23:54.644Z,3.92
2022-09-30T00:26:23.757Z,4.13
2022-09-30T00:28:55.227Z,3.90
2022-09-30T00:34:18.386Z,3.85
2022-09-30T00:36:48.215Z,4.15
2022-09-30T00:39:21.178Z,3.45
2022-09-30T00:41:56.924Z,3.80
2022-09-30T00:44:53.014Z,3.47
2022-09-30T00:47:37.236Z,4.20
2022-09-30T00:50:15.955Z,3.60
2022-09-30T00:52:58.058Z,4.15
2022-09-30T00:55:36.851Z,3.97
2022-09-30T00:58:16.091Z,3.60
2022-09-30T01:00:43.097Z,4.30
2022-09-30T01:03:10.154Z,4.82
2022-09-30T01:05:40.432Z,3.67
2022-09-30T01:08:17.310Z,3.83
2022-09-30T01:10:44.383Z,3.58
2022-09-30T01:13:13.208Z,4.00
2022-09-30T01:15:57.774Z,3.70
2022-09-30T01:18:53.308Z,3.33
2022-09-30T01:21:56.809Z,4.50
2022-09-30T01:24:47.872Z,3.67
2022-09-30T01:27:42.555Z,3.95
2022-09-30T01:30:23.511Z,3.72
2022-09-30T01:33:04.218Z,3.70
2022-09-30T01:35:55.009Z,2.60
2022-09-30T01:38:30.563Z,4.00
2022-09-30T01:41:07.876Z,3.50
2022-09-30T01:43:45.088Z,3.42
2022-09-30T01:46:38.332Z,3.60
2022-09-30T01:49:21.565Z,3.85
2022-09-30T01:51:58.413Z,5.43
2022-09-30T01:54:35.209Z,5.35
2022-09-30T01:57:07.907Z,4.40
2022-09-30T01:59:40.748Z,4.25
2022-09-30T02:02:17.157Z,4.60
2022-09-30T02:04:51.728Z,4.10
2022-09-30T02:07:25.037Z,4.60
2022-09-30T02:09:57.810Z,4.50
2022-09-30T02:12:31.412Z,3.53
2022-09-30T02:15:03.099Z,4.05
2022-09-30T02:17:35.267Z,4.65
2022-09-30T02:20:10.479Z,4.18
2022-09-30T02:22:41.470Z,3.90
2022-09-30T02:25:10.606Z,3.90
2022-09-30T02:27:40.126Z,4.00
2022-09-30T02:30:10.959Z,4.20
2022-09-30T02:32:44.354Z,3.95
2022-09-30T02:35:22.203Z,3.58
2022-09-30T02:37:52.900Z,3.58
2022-09-30T02:40:25.085Z,3.30
2022-09-30T02:42:52.147Z,4.05
2022-09-30T02:45:23.176Z,4.60
2022-09-30T02:48:06.633Z,4.28
2022-09-30T02:50:43.962Z,4.72
2022-09-30T02:53:20.177Z,3.88
2022-09-30T02:56:14.757Z,5.88
2022-09-30T02:58:42.454Z,5.05
2022-09-30T03:01:12.738Z,3.97
2022-09-30T03:03:43.755Z,3.90
2022-09-30T03:06:12.767Z,3.88
2022-09-30T03:08:41.841Z,4.70
2022-09-30T03:11:17.058Z,3.88
2022-09-30T03:14:13.444Z,4.07
2022-09-30T03:17:02.347Z,3.38
2022-09-30T03:19:46.012Z,3.17
2022-09-30T03:22:36.668Z,3.80
2022-09-30T03:25:16.762Z,3.50
2022-09-30T03:27:55.177Z,3.65
2022-09-30T03:30:25.658Z,4.95
2022-09-30T03:33:03.327Z,4.18
2022-09-30T03:35:36.422Z,4.85
2022-09-30T03:38:13.779Z,4.57
2022-09-30T03:40:53.695Z,4.85
2022-09-30T03:43:27.521Z,5.00
2022-09-30T03:45:59.610Z,5.15
2022-09-30T03:48:29.582Z,6.38
2022-09-30T03:50:57.385Z,5.35
2022-09-30T03:53:25.831Z,5.15
2022-09-30T03:55:57.734Z,5.47
2022-09-30T03:58:33.586Z,5.95
2022-09-30T04:01:04.130Z,5.10
2022-09-30T04:03:34.148Z,5.95
2022-09-30T04:06:04.735Z,5.15
2022-09-30T04:08:34.048Z,6.03
2022-09-30T04:11:00.878Z,5.57
2022-09-30T04:13:27.642Z,5.15
2022-09-30T04:15:54.793Z,5.30
2022-09-30T04:18:21.507Z,5.40
2022-09-30T04:20:48.660Z,4.95
2022-09-30T04:23:15.888Z,7.05
2022-09-30T04:25:44.001Z,4.88
2022-09-30T04:28:10.747Z,5.00
2022-09-30T04:30:38.388Z,4.70
2022-09-30T04:33:05.593Z,4.63
2022-09-30T04:35:32.922Z,4.70
2022-09-30T04:38:01.206Z,5.40
2022-09-30T04:40:28.105Z,5.25
2022-09-30T04:42:57.679Z,6.18
2022-09-30T04:45:27.084Z,5.03
2022-09-30T04:47:53.831Z,5.10
2022-09-30T04:50:21.011Z,5.55
2022-09-30T04:52:51.371Z,5.53
2022-09-30T04:55:23.097Z,5.60
2022-09-30T04:57:50.202Z,6.50
2022-09-30T05:00:20.332Z,5.93
2022-09-30T05:02:55.533Z,5.03
2022-09-30T05:05:28.596Z,5.90
2022-09-30T05:08:32.980Z,5.07
2022-09-30T05:11:08.296Z,5.70
2022-09-30T05:13:49.474Z,6.15
2022-09-30T05:19:10.163Z,5.20
2022-09-30T05:21:44.763Z,4.38
2022-09-30T05:24:19.975Z,4.38
2022-09-30T05:26:57.242Z,4.13
2022-09-30T05:29:25.774Z,5.35
2022-09-30T05:31:59.757Z,4.88
2022-09-30T05:34:31.837Z,4.63
2022-09-30T05:36:58.815Z,5.10
2022-09-30T05:39:31.117Z,5.03
2022-09-30T05:41:58.428Z,5.13
2022-09-30T05:44:26.729Z,5.60
2022-09-30T05:46:53.626Z,5.15
2022-09-30T05:49:24.956Z,5.50
2022-09-30T05:51:51.861Z,5.38
2022-09-30T05:54:18.697Z,4.90
2022-09-30T05:56:53.198Z,5.10
2022-09-30T05:59:20.153Z,4.90
2022-09-30T06:01:50.375Z,6.13
2022-09-30T06:04:18.494Z,5.63
2022-09-30T06:06:53.536Z,5.88
2022-09-30T06:09:20.505Z,5.38
2022-09-30T06:11:50.421Z,5.70
2022-09-30T06:14:17.553Z,5.80
2022-09-30T06:16:44.543Z,6.05
2022-09-30T06:19:11.300Z,6.05
2022-09-30T06:21:38.558Z,5.45
2022-09-30T06:24:09.384Z,7.68
2022-09-30T06:26:36.486Z,6.88
2022-09-30T06:29:03.218Z,8.18
2022-09-30T06:31:30.033Z,6.72
2022-09-30T06:33:57.070Z,6.45
2022-09-30T06:36:29.690Z,7.78
2022-09-30T06:38:58.081Z,7.57
2022-09-30T06:41:29.723Z,8.93
2022-09-30T06:44:02.719Z,9.38
2022-09-30T06:46:31.437Z,7.75
2022-09-30T06:49:12.976Z,7.40
2022-09-30T06:51:41.570Z,17.05
2022-09-30T06:54:11.458Z,18.65
2022-09-30T06:56:40.781Z,12.85
2022-09-30T06:59:08.352Z,11.52
2022-09-30T07:01:35.430Z,10.77
2022-09-30T07:04:02.605Z,11.85
2022-09-30T07:06:31.118Z,11.98
2022-09-30T07:09:01.007Z,11.55
2022-09-30T07:11:33.017Z,11.07
2022-09-30T07:14:03.840Z,13.77
2022-09-30T07:16:31.184Z,14.90
2022-09-30T07:18:58.446Z,15.88
2022-09-30T07:21:30.844Z,13.70
2022-09-30T07:23:59.677Z,15.60
2022-09-30T07:26:32.672Z,17.23
2022-09-30T07:29:01.350Z,23.30
2022-09-30T07:31:37.456Z,20.55
2022-09-30T07:34:09.340Z,18.17
2022-09-30T07:36:37.992Z,17.63
2022-09-30T07:39:10.808Z,23.55
2022-09-30T07:42:03.266Z,21.77
2022-09-30T07:44:57.263Z,17.27
2022-09-30T07:47:27.024Z,18.95
2022-09-30T07:49:56.866Z,17.58
2022-09-30T07:52:23.767Z,15.23
2022-09-30T07:54:56.284Z,17.55
2022-09-30T07:57:29.321Z,17.23
2022-09-30T08:00:11.740Z,15.65
2022-09-30T08:02:47.126Z,15.43
2022-09-30T08:05:14.389Z,15.15
2022-09-30T08:07:47.341Z,23.85
2022-09-30T08:10:14.586Z,13.85
2022-09-30T08:12:43.385Z,13.52
2022-09-30T08:15:40.568Z,13.15
2022-09-30T08:18:20.257Z,12.77
2022-09-30T08:20:50.273Z,13.82
2022-09-30T08:23:31.068Z,16.30
2022-09-30T08:26:04.270Z,14.80
2022-09-30T08:28:36.799Z,14.57
2022-09-30T08:31:31.606Z,15.32
2022-09-30T08:34:00.732Z,17.40
2022-09-30T08:36:29.989Z,13.52
2022-09-30T08:39:01.466Z,16.90
2022-09-30T08:42:19.218Z,20.45
2022-09-30T08:44:58.141Z,15.00
2022-09-30T08:47:56.341Z,13.55
2022-09-30T08:50:30.543Z,15.25
2022-09-30T08:53:12.250Z,14.20
2022-09-30T08:55:44.512Z,13.52
2022-09-30T08:58:27.655Z,11.95
2022-09-30T09:00:59.240Z,11.48
2022-09-30T09:03:42.459Z,12.25
2022-09-30T09:06:47.797Z,12.07
2022-09-30T09:09:41.344Z,13.38
2022-09-30T09:12:27.799Z,14.10
2022-09-30T09:15:18.367Z,14.43
2022-09-30T09:21:08.736Z,16.65
2022-09-30T09:23:39.347Z,16.73
2022-09-30T09:26:09.054Z,18.60
2022-09-30T09:29:03.404Z,18.90
2022-09-30T09:31:41.518Z,18.33
2022-09-30T09:40:06.226Z,19.50
2022-09-30T09:42:58.163Z,19.95
2022-09-30T09:48:47.030Z,17.63
2022-09-30T09:51:30.490Z,14.88
2022-09-30T09:54:07.142Z,11.90
2022-09-30T09:56:40.439Z,9.60
2022-09-30T09:59:20.169Z,10.95
2022-09-30T10:01:56.736Z,8.73
2022-09-30T10:04:33.490Z,6.43
2022-09-30T10:07:20.352Z,6.03
2022-09-30T10:10:13.974Z,4.93
2022-09-30T10:12:59.184Z,3.85
2022-09-30T10:15:34.533Z,3.00
2022-09-30T10:18:23.808Z,1.80
2022-09-30T10:21:06.517Z,2.00
2022-09-30T10:23:38.760Z,2.42
2022-09-30T10:29:27.121Z,2.03
2022-09-30T10:32:17.046Z,2.45
2022-09-30T10:35:21.055Z,3.85
2022-09-30T10:38:00.408Z,3.10
2022-09-30T10:40:36.803Z,3.40
2022-09-30T10:43:07.935Z,3.38
2022-09-30T10:45:49.413Z,3.58
2022-09-30T10:48:35.821Z,3.30
2022-09-30T10:51:07.159Z,2.65
2022-09-30T10:53:48.022Z,2.80
2022-09-30T10:56:35.579Z,2.42
2022-09-30T10:59:11.105Z,2.45
2022-09-30T11:09:14.860Z,1.35
2022-09-30T11:11:58.985Z,1.35
2022-09-30T11:14:42.243Z,1.50
2022-09-30T11:17:31.928Z,1.20
2022-09-30T11:20:18.726Z,1.08
2022-09-30T11:22:56.870Z,1.88
2022-09-30T11:25:29.924Z,2.13
2022-09-30T11:28:24.707Z,2.33
2022-09-30T11:31:34.319Z,2.03
2022-09-30T11:34:19.676Z,2.45
2022-09-30T11:38:07.672Z,2.10
2022-09-30T11:40:33.014Z,1.40
2022-09-30T11:46:58.640Z,1.00
2022-09-30T11:49:59.483Z,1.08
2022-09-30T11:52:46.966Z,1.20
2022-09-30T11:55:54.082Z,1.27
2022-09-30T12:01:51.162Z,1.30
2022-09-30T12:04:44.203Z,1.10
2022-09-30T12:07:31.412Z,1.13
2022-09-30T12:13:01.086Z,1.30
2022-09-30T12:15:43.559Z,0.90
2022-09-30T12:18:29.721Z,1.38
2022-09-30T12:21:01.264Z,1.50
2022-09-30T12:23:56.478Z,1.30
2022-09-30T12:30:01.425Z,1.27
2022-09-30T12:33:12.874Z,1.10
2022-09-30T12:36:36.129Z,1.30
2022-09-30T12:39:52.571Z,1.40
2022-09-30T12:43:18.674Z,1.48
2022-09-30T12:46:29.374Z,1.48
2022-09-30T12:49:21.740Z,1.83
2022-09-30T12:52:09.789Z,1.17
2022-09-30T12:54:53.948Z,1.10
2022-09-30T12:57:38.157Z,1.45
2022-09-30T13:05:20.512Z,1.67
2022-09-30T13:07:31.072Z,1.20
2022-09-30T13:13:58.126Z,1.30
2022-09-30T13:20:28.602Z,1.67
2022-09-30T13:23:40.612Z,1.55
2022-09-30T13:27:45.495Z,1.58
2022-09-30T13:30:51.853Z,1.63
2022-09-30T13:36:49.807Z,1.30
2022-09-30T13:42:44.207Z,2.08
2022-09-30T13:48:21.159Z,2.50
2022-09-30T13:51:36.995Z,2.08
2022-09-30T13:57:51.150Z,2.20
2022-09-30T14:01:07.520Z,2.67
2022-09-30T14:04:09.689Z,2.30
2022-09-30T14:17:50.376Z,1.55
2022-09-30T14:27:51.105Z,1.25
2022-09-30T14:30:51.118Z,0.90
2022-09-30T14:37:18.645Z,0.60
2022-09-30T14:40:51.559Z,1.10
2022-09-30T15:25:34.546Z,0.95
2022-09-30T15:28:36.258Z,0.80
2022-09-30T15:34:45.460Z,0.93
2022-09-30T15:40:51.261Z,1.15
2022-09-30T15:43:55.205Z,1.20
2022-09-30T15:50:41.891Z,1.25
2022-09-30T15:56:46.461Z,1.40
2022-09-30T15:59:54.424Z,1.15
2022-09-30T16:22:34.764Z,1.50
2022-09-30T16:25:28.482Z,1.33
2022-09-30T16:28:39.697Z,2.17
2022-09-30T16:44:22.625Z,3.00
2022-09-30T16:54:18.696Z,2.50
2022-09-30T16:57:27.882Z,3.05
2022-09-30T17:00:17.551Z,3.05
2022-09-30T17:03:15.567Z,3.15
2022-09-30T17:09:30.704Z,3.00
2022-09-30T17:12:46.803Z,3.45
2022-09-30T17:19:29.692Z,3.10
2022-09-30T17:22:57.250Z,4.18
2022-09-30T17:26:18.484Z,3.38
2022-09-30T18:50:38.311Z,4.60
2022-09-30T19:32:14.168Z,4.07
2022-09-30T19:42:22.681Z,3.38
2022-09-30T20:05:59.049Z,3.03
2022-09-30T20:08:51.397Z,3.00
2022-09-30T20:25:12.269Z,3.10
2022-09-30T20:31:59.716Z,3.33
2022-09-30T20:51:36.576Z,3.05
2022-09-30T21:10:37.198Z,3.25
2022-09-30T21:14:02.920Z,3.05
2022-09-30T21:23:27.220Z,3.13
2022-09-30T21:32:22.813Z,2.72
2022-09-30T22:14:29.446Z,4.55
2022-09-30T22:17:23.488Z,4.10
2022-09-30T22:40:37.003Z,4.80
2022-09-30T22:43:24.073Z,5.50
2022-09-30T22:46:27.958Z,5.70
2022-09-30T22:52:32.278Z,5.88
2022-09-30T22:55:03.659Z,6.50
2022-09-30T22:58:07.722Z,5.70
2022-09-30T23:01:15.651Z,5.50
2022-09-30T23:07:10.776Z,6.25
2022-09-30T23:13:22.777Z,5.97
2022-09-30T23:16:04.785Z,6.60
2022-09-30T23:25:01.651Z,6.50
2022-09-30T23:37:30.861Z,7.00
2022-09-30T23:40:29.141Z,7.10
2022-09-30T23:43:07.437Z,7.45
2022-09-30T23:46:20.313Z,7.78
2022-09-30T23:51:39.942Z,8.18
2022-09-30T23:54:16.468Z,9.18
2022-09-30T23:57:18.551Z,8.48
2022-09-30T23:59:55.768Z,8.90
